East Davis - southern half: Past 24 Hour Conditions

 

Resolute Airport

05:00 AM CDT 24 October 2014
This table is a summary of hourly weather conditions for the past 24 hours.
Date / Time
(CDT)
Wind(knots) Conditions Visibility(km) Pressure(kPa) Air tempC) Relative humidity(%) Dew pointC) Wind Chill
24 October 2014
5:00 NW 17 Ice Crystals 24 102.4 -20 78 -23 -33
4:00 NNW 14 Ice Crystals 24 102.5 -21 78 -23 -33
3:00 NW 17 Ice Crystals 24 102.4 -18 82 -21 -31
2:00 NW 15 Ice Crystals 24 102.4 -18 81 -20 -29
1:00 NNW 19 Ice Crystals 24 102.3 -19 81 -21 -32
0:00 NNW 16 Ice Crystals 24 102.3 -17 82 -20 -29
23 October 2014
23:00 NW 15 Ice Crystals 24 102.3 -17 83 -19 -28
22:00 NW 14 Ice Crystals 19 102.3 -18 84 -20 -29
21:00 NNW 15 Light Snow 24 102.3 -17 83 -19 -28
20:00 NW 16 Light Snow 21 102.3 -16 85 -18 -27
19:00 NW 14 Light Snow 24 102.2 -16 84 -18 -26
18:00 NW 18 Light Snow 11 102.2 -15 85 -17 -27
17:00 NW 17 Light Snow 15 102.2 -15 85 -17 -26
16:00 NW 18 Light Snow 11 102.1 -15 85 -17 -26
15:00 NW 15 Light Snow 6 102.1 -15 85 -17 -26
14:00 NW 17 gust 23 Light Snow 4 102.1 -15 85 -17 -27
13:00 NW 16 Light Snow 6 102.1 -16 85 -18 -27
12:00 NW 22 gust 29 Light Snow 1 102.1 -16 84 -18 -28
11:00 WNW 17 Light Snow 4 102.0 -15 85 -17 -26
10:00 NW 18 Light Snow 5 102.0 -15 83 -18 -27
9:00 NW 10 Light Snow 13 102.0 -16 85 -18 -25
8:00 NW 19 Light Snow 11 102.0 -17 83 -20 -30
7:00 NW 13 Ice Crystals 21 102.0 -19 81 -21 -30
6:00 NW 17 gust 26 Ice Crystals 16 101.9 -18 81 -20 -30
5:00 NNW 24 Ice Crystals 8 101.9 -17 82 -19 -31
 
Map of Arctic - Eastern Arctic marine weather areas Baker Lake Airport Chesterfield Inlet Airport Coral Harbour Airport Gjoa Haven Airport Kugaaruk Airport Rankin Inlet Airport Shepherd Bay Airport Whale Cove Airport Arctic Bay Brevoort Island Qikiqtarjuaq Airport Cape Dorset Airport Cape Dyer Cape Hooper Clyde Airport Grise Fiord Airport Hall Beach Airport Igloolik Airport Iqaluit Airport Longstaff Bluff Pangnirtung Airport Pond Inlet Airport Repulse Bay Airport Resolute Airport Resolution Island Rowley Island Airport Taloyoak Airport Wager Bay Akulivik Airport Ivujivik Airport Puvirnituq Airport Kangiqsujuaq Airport Kangirsuk Airport Quaqtaq Airport Tasiujaq Airport Cape Kakkiviak Cape Kiglapait Nain Airport Saglek Cape Mercy Kimmirut Airport Aupaluk Airport Salluit Airport Kangiqsualujjuaq Airport Fort Ross
Legend: buoyBuoy land stationLand Station